Time;durP1;ratioP1;P1;durP2;ratioP2;P2;SDS_P1;SDS_P2;PMS_P1;PMS_P2;Temp;Humidity;BMP_temperature;BMP_pressure;BME280_temperature;BME280_humidity;BME280_pressure;Samples;Min_cycle;Max_cycle;Signal;HPM_P1;HPM_P2
2023/08/07 00:00:40;;;;;;;0.10;0.10;;;;;;;9.80;100.00;96116.41;5031701;28;20038;-81
2023/08/07 00:03:26;;;;;;;0.10;0.10;;;;;;;9.85;100.00;96117.28;5033362;28;20048;-81
2023/08/07 00:06:11;;;;;;;0.10;0.10;;;;;;;9.83;100.00;96121.28;5036216;28;20135;-81
2023/08/07 00:08:57;;;;;;;0.10;0.10;;;;;;;9.80;100.00;96117.22;5033408;28;20048;-81
2023/08/07 00:11:43;;;;;;;0.10;0.10;;;;;;;9.74;100.00;96108.38;5018798;28;20065;-81
2023/08/07 00:14:29;;;;;;;0.10;0.10;;;;;;;9.76;100.00;96127.63;5034833;28;20037;-81
2023/08/07 00:17:15;;;;;;;0.10;0.10;;;;;;;9.73;100.00;96130.00;5019650;28;20033;-80
2023/08/07 00:20:01;;;;;;;0.10;0.10;;;;;;;9.76;100.00;96124.94;5033866;28;20653;-81
2023/08/07 00:22:47;;;;;;;0.17;0.17;;;;;;;9.72;100.00;96121.16;5014742;28;20675;-81
2023/08/07 00:25:33;;;;;;;0.10;0.10;;;;;;;9.73;100.00;96119.31;5036588;28;20594;-82
2023/08/07 00:28:18;;;;;;;0.10;0.10;;;;;;;9.79;100.00;96123.63;5032850;28;20070;-81
2023/08/07 00:31:04;;;;;;;0.10;0.10;;;;;;;9.84;100.00;96129.03;5032477;28;20044;-82
2023/08/07 00:33:53;;;;;;;0.10;0.10;;;;;;;9.82;100.00;96107.13;5034424;28;20043;-80
2023/08/07 00:36:39;;;;;;;0.10;0.10;;;;;;;9.80;100.00;96116.41;5029369;28;20044;-81
2023/08/07 00:39:26;;;;;;;0.10;0.10;;;;;;;9.76;100.00;96114.25;5016119;28;20036;-81
2023/08/07 00:42:12;;;;;;;0.10;0.10;;;;;;;9.73;100.00;96114.78;5032453;28;20120;-81
2023/08/07 00:44:58;;;;;;;0.10;0.10;;;;;;;9.78;100.00;96111.34;5033139;28;20544;-81
2023/08/07 00:47:44;;;;;;;0.10;0.10;;;;;;;9.77;100.00;96107.03;5015977;28;20033;-80
2023/08/07 00:50:30;;;;;;;0.10;0.10;;;;;;;9.74;100.00;96118.25;5035206;28;20090;-80
2023/08/07 00:53:16;;;;;;;0.10;0.10;;;;;;;9.72;100.00;96115.00;5017954;28;20067;-81
2023/08/07 00:56:02;;;;;;;0.10;0.10;;;;;;;9.68;100.00;96117.38;5033013;28;20722;-81
2023/08/07 00:58:49;;;;;;;0.10;0.10;;;;;;;9.67;100.00;96136.34;5018927;28;20111;-81
2023/08/07 01:01:36;;;;;;;0.10;0.10;;;;;;;9.69;100.00;96107.50;5032671;28;20816;-80
2023/08/07 01:04:23;;;;;;;0.10;0.10;;;;;;;9.67;100.00;96114.97;5034864;28;20053;-80
2023/08/07 01:07:09;;;;;;;0.10;0.10;;;;;;;9.66;100.00;96130.19;5020274;28;20056;-81
2023/08/07 01:09:57;;;;;;;0.10;0.10;;;;;;;9.67;100.00;96113.09;5033459;28;20505;-80
2023/08/07 01:12:58;;;;;;;0.10;0.10;;;;;;;9.72;100.00;96120.34;5030270;28;20747;-81
2023/08/07 01:15:44;;;;;;;;;;;;;;;9.69;100.00;96119.00;5017159;28;20044;-81
2023/08/07 01:18:31;;;;;;;0.10;0.10;;;;;;;9.68;100.00;96120.06;5030720;28;19931;-80
2023/08/07 01:21:18;;;;;;;0.20;0.20;;;;;;;9.72;100.00;96128.34;5032456;28;20064;-80
2023/08/07 01:24:04;;;;;;;0.10;0.10;;;;;;;9.66;100.00;96124.84;5016441;28;20086;-80
2023/08/07 01:26:53;;;;;;;0.10;0.10;;;;;;;9.60;100.00;96119.69;5030983;28;20926;-81
2023/08/07 01:29:51;;;;;;;0.10;0.10;;;;;;;9.59;100.00;96131.44;5034040;28;20049;-81
2023/08/07 01:32:58;;;;;;;0.10;0.10;;;;;;;9.58;100.00;96117.28;5030201;28;20217;-81
2023/08/07 01:35:49;;;;;;;0.10;0.10;;;;;;;9.63;100.00;96138.69;5033531;28;20045;-80
2023/08/07 01:38:37;;;;;;;0.15;0.15;;;;;;;9.60;100.00;96133.84;5034809;28;20098;-80
2023/08/07 01:41:24;;;;;;;0.10;0.10;;;;;;;9.60;100.00;96141.88;5019038;28;20041;-80
2023/08/07 01:44:09;;;;;;;0.10;0.10;;;;;;;9.60;100.00;96141.88;5023149;28;20055;-80
2023/08/07 01:46:55;;;;;;;0.10;0.10;;;;;;;9.60;100.00;96127.72;5023264;28;20044;-80
2023/08/07 01:49:42;;;;;;;0.10;0.10;;;;;;;9.63;100.00;96138.69;5035953;28;20048;-79
2023/08/07 01:52:29;;;;;;;0.10;0.10;;;;;;;9.60;100.00;96130.38;5032718;28;20043;-81
2023/08/07 01:55:16;;;;;;;0.10;0.10;;;;;;;9.59;100.00;96140.25;5037118;28;20703;-80
2023/08/07 01:58:09;;;;;;;0.10;0.10;;;;;;;9.60;100.00;96141.88;5018868;28;20599;-80
2023/08/07 02:00:55;;;;;;;0.10;0.10;;;;;;;9.61;100.00;96143.47;5016288;28;20087;-80
2023/08/07 02:03:41;;;;;;;0.10;0.10;;;;;;;9.62;100.00;96139.75;5034877;28;20045;-80
2023/08/07 02:06:26;;;;;;;0.00;0.00;;;;;;;9.61;100.00;96134.66;5035109;28;20075;-80
2023/08/07 02:09:12;;;;;;;0.10;0.10;;;;;;;9.58;100.00;96138.66;5021526;28;20048;-80
2023/08/07 02:11:58;;;;;;;0.10;0.10;;;;;;;9.59;100.00;96145.59;5034717;28;20056;-80
2023/08/07 02:14:44;;;;;;;0.10;0.10;;;;;;;9.58;100.00;96144.00;5033055;28;20029;-80
2023/08/07 02:17:30;;;;;;;0.10;0.10;;;;;;;9.59;100.00;96137.59;5035123;28;20063;-81
2023/08/07 02:20:16;;;;;;;0.10;0.10;;;;;;;9.61;100.00;96150.69;5033366;28;20052;-80
2023/08/07 02:23:02;;;;;;;0.10;0.10;;;;;;;9.56;100.00;96154.09;5036362;28;20638;-81
2023/08/07 02:25:48;;;;;;;0.10;0.10;;;;;;;9.57;100.00;96155.72;5035206;28;20037;-80
2023/08/07 02:28:34;;;;;;;0.10;0.10;;;;;;;9.55;100.00;96151.69;5036233;28;20075;-80
2023/08/07 02:31:21;;;;;;;0.10;0.10;;;;;;;9.56;100.00;96155.97;5018205;28;20110;-80
2023/08/07 02:34:06;;;;;;;0.10;0.10;;;;;;;9.52;100.00;96149.50;5036778;28;20072;-81
2023/08/07 02:36:52;;;;;;;0.10;0.10;;;;;;;9.53;100.00;96149.25;5035598;28;20514;-81
2023/08/07 02:39:38;;;;;;;0.10;0.10;;;;;;;9.52;100.00;96152.19;5032976;28;20040;-80
2023/08/07 02:42:24;;;;;;;0.10;0.10;;;;;;;9.51;100.00;96142.56;5021505;28;20043;-79
2023/08/07 02:45:10;;;;;;;0.10;0.10;;;;;;;9.43;100.00;96151.81;5020213;28;20414;-81
2023/08/07 02:47:56;;;;;;;0.10;0.10;;;;;;;9.48;100.00;96163.34;5035317;28;20776;-81
2023/08/07 02:50:41;;;;;;;0.10;0.10;;;;;;;9.51;100.00;96162.06;5034230;28;20712;-80
2023/08/07 02:53:27;;;;;;;0.10;0.10;;;;;;;9.47;100.00;96166.28;5031399;28;20262;-80
2023/08/07 02:56:13;;;;;;;0.10;0.10;;;;;;;9.46;100.00;96146.78;5037627;28;20097;-80
2023/08/07 02:59:01;;;;;;;0.00;0.00;;;;;;;9.40;100.00;96173.66;5027940;28;20086;-80
2023/08/07 03:01:49;;;;;;;0.10;0.10;;;;;;;9.45;100.00;96141.69;5035246;28;20032;-81
2023/08/07 03:04:37;;;;;;;0.10;0.10;;;;;;;9.44;100.00;96156.91;5031417;28;20124;-81
2023/08/07 03:07:23;;;;;;;0.10;0.10;;;;;;;9.45;100.00;96147.84;5018879;28;20106;-80
2023/08/07 03:10:09;;;;;;;0.10;0.10;;;;;;;9.41;100.00;96156.56;5037201;28;20055;-80
2023/08/07 03:12:55;;;;;;;0.00;0.00;;;;;;;9.41;100.00;96151.22;5018385;28;20051;-80
2023/08/07 03:15:41;;;;;;;0.10;0.10;;;;;;;9.37;100.00;96172.31;5033555;28;20037;-80
2023/08/07 03:18:28;;;;;;;0.10;0.10;;;;;;;9.44;100.00;96162.25;5019381;28;20048;-81
2023/08/07 03:21:14;;;;;;;0.10;0.10;;;;;;;9.44;100.00;96169.44;5018624;28;20722;-81
2023/08/07 03:24:01;;;;;;;0.10;0.10;;;;;;;9.43;100.00;96173.19;5030900;28;20076;-80
2023/08/07 03:26:49;;;;;;;0.10;0.10;;;;;;;9.43;100.00;96162.50;5031837;28;20037;-80
2023/08/07 03:29:35;;;;;;;0.10;0.10;;;;;;;9.51;100.00;96172.75;5017691;28;20390;-80
2023/08/07 03:32:21;;;;;;;0.10;0.10;;;;;;;9.51;100.00;96177.28;5033344;28;20099;-81
2023/08/07 03:35:07;;;;;;;0.10;0.10;;;;;;;9.49;100.00;96164.16;5020389;28;20044;-80
2023/08/07 03:37:53;;;;;;;0.10;0.10;;;;;;;9.45;100.00;96173.72;5019447;28;20602;-81
2023/08/07 03:40:40;;;;;;;0.10;0.10;;;;;;;9.46;100.00;96162.78;5036700;28;20045;-80
2023/08/07 03:43:27;;;;;;;0.10;0.10;;;;;;;9.47;100.00;96174.28;5032026;28;20036;-79
2023/08/07 03:46:13;;;;;;;0.10;0.10;;;;;;;9.46;100.00;96188.69;5017234;28;20045;-80
2023/08/07 03:48:59;;;;;;;0.10;0.10;;;;;;;9.43;100.00;96178.53;5030380;28;20036;-80
2023/08/07 03:51:47;;;;;;;0.10;0.10;;;;;;;9.48;100.00;96176.69;5035128;28;20571;-80
2023/08/07 03:54:33;;;;;;;0.10;0.10;;;;;;;9.51;100.00;96164.75;5023062;28;20093;-80
2023/08/07 03:57:19;;;;;;;0.10;0.10;;;;;;;9.53;100.00;96177.84;5032460;28;20795;-80
2023/08/07 04:00:06;;;;;;;0.10;0.10;;;;;;;9.51;100.00;96167.41;5020617;28;20083;-80
2023/08/07 04:02:59;;;;;;;0.13;0.13;;;;;;;9.51;100.00;96172.75;5033309;28;20648;-80
2023/08/07 04:05:44;;;;;;;0.10;0.10;;;;;;;9.49;100.00;96173.00;5022168;28;20053;-80
2023/08/07 04:08:30;;;;;;;0.10;0.10;;;;;;;9.54;100.00;96171.44;5032318;28;20523;-80
2023/08/07 04:11:17;;;;;;;0.10;0.10;;;;;;;9.47;100.00;96172.41;5020301;28;20055;-81
2023/08/07 04:14:03;;;;;;;0.10;0.10;;;;;;;9.46;100.00;96188.69;5035191;28;20037;-80
2023/08/07 04:16:49;;;;;;;0.10;0.10;;;;;;;9.43;100.00;96170.50;5035490;28;20056;-80
2023/08/07 04:19:35;;;;;;;0.10;0.10;;;;;;;9.38;100.00;96176.59;5034413;28;20052;-81
2023/08/07 04:22:21;;;;;;;0.10;0.10;;;;;;;9.33;100.00;96176.50;5032614;28;20872;-81
2023/08/07 04:25:07;;;;;;;0.10;0.10;;;;;;;9.30;100.00;96186.88;5035456;28;20044;-80
2023/08/07 04:27:53;;;;;;;0.10;0.10;;;;;;;9.25;100.00;96186.81;5031404;28;20037;-81
2023/08/07 04:30:40;;;;;;;0.15;0.15;;;;;;;9.24;100.00;96187.88;5034364;28;20116;-81
2023/08/07 04:33:29;;;;;;;0.10;0.10;;;;;;;9.26;100.00;96191.09;5035440;28;20033;-81
2023/08/07 04:36:15;;;;;;;0.10;0.10;;;;;;;9.23;100.00;96167.56;5036207;28;20043;-81
2023/08/07 04:39:01;;;;;;;0.10;0.10;;;;;;;9.28;100.00;96199.69;5033772;28;21450;-80
2023/08/07 04:41:47;;;;;;;0.10;0.10;;;;;;;9.22;100.00;96190.78;5022866;28;20044;-80
2023/08/07 04:44:33;;;;;;;0.10;0.10;;;;;;;9.22;100.00;96204.13;5033832;28;20934;-80
2023/08/07 04:47:19;;;;;;;0.10;0.10;;;;;;;9.21;100.00;96192.66;5033129;28;20280;-79
2023/08/07 04:50:05;;;;;;;0.10;0.10;;;;;;;9.24;100.00;96203.88;5035037;28;20037;-79
2023/08/07 04:52:51;;;;;;;0.13;0.13;;;;;;;9.23;100.00;96200.41;5033345;28;20040;-79
2023/08/07 04:55:36;;;;;;;0.10;0.10;;;;;;;9.32;100.00;96206.94;5034850;28;20036;-80
2023/08/07 04:58:22;;;;;;;0.10;0.10;;;;;;;9.31;100.00;96209.84;5035502;28;20045;-80
2023/08/07 05:01:08;;;;;;;0.10;0.10;;;;;;;9.36;100.00;96223.28;5034331;28;20060;-79
2023/08/07 05:03:54;;;;;;;0.10;0.10;;;;;;;9.34;100.00;96218.19;5034001;28;20068;-80
2023/08/07 05:06:40;;;;;;;0.10;0.10;;;;;;;9.36;100.00;96220.63;5033455;28;20059;-79
2023/08/07 05:09:26;;;;;;;0.10;0.10;;;;;;;9.39;100.00;96217.44;5035937;28;20075;-80
2023/08/07 05:12:12;;;;;;;0.10;0.10;;;;;;;9.39;100.00;96217.44;5020234;28;20056;-80
2023/08/07 05:14:58;;;;;;;0.10;0.10;;;;;;;9.44;100.00;96222.88;5035856;28;20041;-80
2023/08/07 05:17:44;;;;;;;0.10;0.10;;;;;;;9.43;100.00;96221.25;5020109;28;20048;-80
2023/08/07 05:20:29;;;;;;;0.10;0.10;;;;;;;9.49;100.00;96217.56;5038910;28;20041;-80
2023/08/07 05:23:15;;;;;;;0.10;0.10;;;;;;;9.46;100.00;96234.09;5038816;28;20290;-80
2023/08/07 05:26:02;;;;;;;0.10;0.10;;;;;;;9.49;100.00;96238.94;5038583;28;20391;-80
2023/08/07 05:28:47;;;;;;;0.10;0.10;;;;;;;9.50;100.00;96224.56;5037212;28;20037;-80
2023/08/07 05:31:33;;;;;;;0.10;0.10;;;;;;;9.52;100.00;96235.00;5038740;28;20063;-80
2023/08/07 05:34:19;;;;;;;0.10;0.10;;;;;;;9.54;100.00;96232.88;5040294;28;20037;-80
2023/08/07 05:37:06;;;;;;;0.10;0.10;;;;;;;9.52;100.00;96243.81;5039448;28;20037;-80
2023/08/07 05:39:52;;;;;;;0.10;0.10;;;;;;;9.55;100.00;96237.16;5035327;28;20033;-80
2023/08/07 05:42:38;;;;;;;0.10;0.10;;;;;;;9.55;100.00;96239.81;5036527;28;20992;-80
2023/08/07 05:45:24;;;;;;;0.10;0.10;;;;;;;9.53;100.00;96248.09;5036564;28;20041;-80
2023/08/07 05:48:09;;;;;;;0.10;0.10;;;;;;;9.49;100.00;96244.28;5036238;28;20045;-80
2023/08/07 05:50:55;;;;;;;0.10;0.10;;;;;;;9.49;100.00;96245.13;5037918;28;21029;-79
2023/08/07 05:53:41;;;;;;;0.10;0.10;;;;;;;9.52;100.00;96248.34;5035429;28;20374;-79
2023/08/07 05:56:27;;;;;;;0.10;0.10;;;;;;;9.53;100.00;96261.44;5037486;28;20606;-79
2023/08/07 05:59:13;;;;;;;0.10;0.10;;;;;;;9.53;100.00;96258.78;5036765;28;21080;-79
2023/08/07 06:01:58;;;;;;;0.10;0.10;;;;;;;9.51;100.00;96250.22;5036570;28;20048;-79
2023/08/07 06:04:45;;;;;;;0.10;0.10;;;;;;;9.53;100.00;96261.44;5038661;28;20128;-79
2023/08/07 06:07:30;;;;;;;0.10;0.10;;;;;;;9.54;100.00;96260.38;5020672;28;20090;-79
2023/08/07 06:10:16;;;;;;;0.10;0.10;;;;;;;9.53;100.00;96272.13;5037778;28;20053;-79
2023/08/07 06:13:03;;;;;;;0.10;0.10;;;;;;;9.56;100.00;96276.97;5021829;28;20051;-81
2023/08/07 06:15:49;;;;;;;0.10;0.10;;;;;;;9.61;100.00;96271.72;5023593;28;20106;-80
2023/08/07 06:18:35;;;;;;;0.10;0.10;;;;;;;9.62;100.00;96272.50;5037164;28;20103;-80
2023/08/07 06:21:21;;;;;;;0.10;0.10;;;;;;;9.52;100.00;96265.19;5038438;28;20137;-80
2023/08/07 06:24:07;;;;;;;0.10;0.10;;;;;;;9.55;100.00;96262.00;5034832;28;20090;-81
2023/08/07 06:26:53;;;;;;;0.10;0.10;;;;;;;9.53;100.00;96260.63;5036873;28;20482;-81
2023/08/07 06:29:39;;;;;;;0.10;0.10;;;;;;;9.48;100.00;96262.19;5037811;28;20041;-80
2023/08/07 06:32:25;;;;;;;0.10;0.10;;;;;;;9.60;100.00;96269.28;5035242;28;20037;-81
2023/08/07 06:35:11;;;;;;;0.10;0.10;;;;;;;9.57;100.00;96275.09;5023346;28;20131;-82
2023/08/07 06:37:57;;;;;;;0.10;0.10;;;;;;;9.53;100.00;96300.72;5037151;28;20779;-79
2023/08/07 06:40:44;;;;;;;0.10;0.10;;;;;;;9.55;100.00;96267.34;5036483;28;20037;-79
2023/08/07 06:43:30;;;;;;;0.10;0.10;;;;;;;9.55;100.00;96286.03;5035958;28;20037;-79
2023/08/07 06:46:16;;;;;;;0.10;0.10;;;;;;;9.61;100.00;96287.75;5039094;28;20051;-80
2023/08/07 06:49:02;;;;;;;0.10;0.10;;;;;;;9.68;100.00;96283.03;5021770;28;20160;-80
2023/08/07 06:51:48;;;;;;;0.10;0.10;;;;;;;9.74;100.00;96267.88;5034156;28;20033;-80
2023/08/07 06:54:35;;;;;;;0.10;0.10;;;;;;;9.80;100.00;96260.72;5021299;28;20118;-80
2023/08/07 06:57:20;;;;;;;0.10;0.10;;;;;;;9.73;100.00;96279.63;5037765;28;20209;-81
2023/08/07 07:00:07;;;;;;;0.10;0.10;;;;;;;9.74;100.00;96273.22;5036313;28;20041;-80
2023/08/07 07:02:53;;;;;;;0.10;0.10;;;;;;;9.77;100.00;96284.22;5034836;28;20041;-80
2023/08/07 07:05:39;;;;;;;0.10;0.10;;;;;;;9.82;100.00;96286.16;5033917;28;20198;-81
2023/08/07 07:08:24;;;;;;;0.10;0.10;;;;;;;9.86;100.00;96291.81;5034750;28;20041;-81
2023/08/07 07:11:11;;;;;;;0.10;0.10;;;;;;;9.80;100.00;96282.91;5037213;28;20052;-81
2023/08/07 07:13:57;;;;;;;0.10;0.10;;;;;;;9.77;100.00;96286.88;5034413;28;20076;-81
2023/08/07 07:16:43;;;;;;;0.10;0.10;;;;;;;9.80;100.00;96290.91;5037939;28;20737;-81
2023/08/07 07:19:29;;;;;;;0.10;0.10;;;;;;;9.88;100.00;96292.34;5036817;28;20504;-81
2023/08/07 07:22:15;;;;;;;0.10;0.10;;;;;;;9.83;100.00;96295.78;5036395;28;20040;-81
2023/08/07 07:25:01;;;;;;;0.10;0.10;;;;;;;9.78;100.00;96287.69;5034650;28;20048;-82
2023/08/07 07:27:47;;;;;;;0.10;0.10;;;;;;;9.82;100.00;96296.03;5034703;28;20119;-82
2023/08/07 07:30:33;;;;;;;0.10;0.10;;;;;;;9.83;100.00;96294.97;5034469;28;20049;-82
2023/08/07 07:33:19;;;;;;;0.10;0.10;;;;;;;9.83;100.00;96300.31;5036681;28;20105;-81
2023/08/07 07:36:06;;;;;;;0.10;0.10;;;;;;;9.85;100.00;96298.22;5037095;28;20106;-82
2023/08/07 07:38:52;;;;;;;0.10;0.10;;;;;;;9.86;100.00;96297.16;5032144;28;20148;-80
2023/08/07 07:41:38;;;;;;;0.10;0.10;;;;;;;9.89;100.00;96300.16;5037256;28;20040;-81
2023/08/07 07:44:24;;;;;;;0.10;0.10;;;;;;;9.91;100.00;96305.25;5035176;28;20045;-80
2023/08/07 07:47:09;;;;;;;0.10;0.10;;;;;;;9.89;100.00;96323.41;5034438;28;20049;-83
2023/08/07 07:50:07;;;;;;;0.10;0.10;;;;;;;9.77;100.00;96323.50;5036837;28;20033;-82
2023/08/07 07:52:53;;;;;;;0.20;0.20;;;;;;;9.84;100.00;96317.97;5036389;28;20062;-82
2023/08/07 07:55:39;;;;;;;0.10;0.10;;;;;;;9.80;100.00;96327.53;5038280;28;20983;-82
2023/08/07 07:58:24;;;;;;;0.10;0.10;;;;;;;9.85;100.00;96331.09;5022019;28;20045;-85
2023/08/07 08:01:11;;;;;;;0.10;0.10;;;;;;;9.82;100.00;96334.25;5032844;28;20087;-83
2023/08/07 08:03:56;;;;;;;0.10;0.10;;;;;;;9.92;100.00;96341.59;5035444;28;20525;-84
2023/08/07 08:06:42;;;;;;;0.10;0.10;;;;;;;9.96;100.00;96332.84;5038264;28;20052;-81
2023/08/07 08:09:28;;;;;;;0.10;0.10;;;;;;;9.92;100.00;96329.03;5038133;28;20510;-83
2023/08/07 08:12:14;;;;;;;0.10;0.10;;;;;;;9.85;100.00;96346.31;5037367;28;20041;-84
2023/08/07 08:15:00;;;;;;;0.10;0.10;;;;;;;9.89;100.00;96352.78;5034842;28;20037;-83
2023/08/07 08:17:45;;;;;;;0.10;0.10;;;;;;;9.92;100.00;96355.78;5033659;28;20041;-81
2023/08/07 08:20:33;;;;;;;0.20;0.20;;;;;;;9.93;100.00;96364.59;5035679;28;20520;-80
2023/08/07 08:23:19;;;;;;;0.10;0.10;;;;;;;9.96;100.00;96358.75;5038375;28;20546;-83
2023/08/07 08:26:05;;;;;;;0.10;0.10;;;;;;;10.00;100.00;96357.22;5043088;28;20044;-82
2023/08/07 08:28:51;;;;;;;0.10;0.10;;;;;;;9.95;100.00;96379.31;5052310;28;20059;-82
2023/08/07 08:31:37;;;;;;;0.10;0.10;;;;;;;9.94;100.00;96367.03;5050467;28;20045;-83
2023/08/07 08:34:22;;;;;;;0.10;0.10;;;;;;;9.98;100.00;96372.69;5035648;28;20067;-82
2023/08/07 08:37:10;;;;;;;0.10;0.10;;;;;;;10.00;100.00;96365.22;5012529;28;20066;-82
2023/08/07 08:39:56;;;;;;;0.10;0.10;;;;;;;10.03;100.00;96378.91;5034445;28;20040;-83
2023/08/07 08:42:43;;;;;;;0.10;0.10;;;;;;;10.03;100.00;96381.56;5034189;28;20387;-81
2023/08/07 08:45:32;;;;;;;0.10;0.10;;;;;;;10.15;100.00;96386.81;5032355;28;20041;-83
2023/08/07 08:48:23;;;;;;;0.10;0.10;;;;;;;10.07;100.00;96381.91;5020020;28;20601;-81
2023/08/07 08:51:11;;;;;;;0.10;0.10;;;;;;;10.07;100.00;96392.59;5020365;28;20701;-85
2023/08/07 08:53:57;;;;;;;0.10;0.10;;;;;;;9.98;100.00;96402.09;5031152;28;20689;-84
2023/08/07 08:56:43;;;;;;;0.10;0.10;;;;;;;10.02;100.00;96389.84;5034476;28;20037;-82
2023/08/07 08:59:29;;;;;;;0.10;0.10;;;;;;;10.04;100.00;96406.47;5032933;28;20048;-83
2023/08/07 09:02:15;;;;;;;0.10;0.10;;;;;;;10.08;100.00;96398.75;5032886;28;20499;-81
2023/08/07 09:05:00;;;;;;;0.10;0.10;;;;;;;10.11;100.00;96409.75;5033594;28;20415;-82
2023/08/07 09:07:48;;;;;;;0.10;0.10;;;;;;;10.04;100.00;96404.59;5035731;28;20047;-83
2023/08/07 09:10:38;;;;;;;0.10;0.10;;;;;;;10.10;100.00;96410.00;5039004;28;20045;-83
2023/08/07 09:13:28;;;;;;;0.10;0.10;;;;;;;10.17;100.00;96419.47;5034442;28;20040;-80
2023/08/07 09:16:14;;;;;;;0.10;0.10;;;;;;;10.11;100.00;96436.50;5036751;28;20048;-82
2023/08/07 09:19:00;;;;;;;0.10;0.10;;;;;;;10.18;100.00;96425.63;5021381;28;20044;-81
2023/08/07 09:21:46;;;;;;;0.10;0.10;;;;;;;10.19;100.00;96414.69;5033175;28;20188;-81
2023/08/07 09:24:32;;;;;;;0.10;0.10;;;;;;;10.18;100.00;96425.63;5035409;28;20039;-81
2023/08/07 09:27:18;;;;;;;0.10;0.10;;;;;;;10.31;100.00;96433.34;5032414;28;20152;-82
2023/08/07 09:30:10;;;;;;;0.10;0.10;;;;;;;10.38;100.00;96431.28;5034415;28;20052;-83
2023/08/07 09:32:58;;;;;;;0.10;0.10;;;;;;;10.44;100.00;96430.31;5034065;28;20574;-82
2023/08/07 09:35:45;;;;;;;0.10;0.10;;;;;;;10.43;100.00;96441.25;5005704;28;20045;-82
2023/08/07 09:38:32;;;;;;;0.10;0.10;;;;;;;10.47;100.00;96445.03;5029289;28;20033;-82
2023/08/07 09:41:19;;;;;;;0.10;0.10;;;;;;;10.46;100.00;96443.44;5031755;28;20067;-81
2023/08/07 09:44:10;;;;;;;0.10;0.10;;;;;;;10.44;100.00;96449.03;5029993;28;20040;-83
2023/08/07 09:46:56;;;;;;;0.10;0.10;;;;;;;10.45;100.00;96447.16;5032143;28;20033;-83
2023/08/07 09:49:43;;;;;;;0.15;0.15;;;;;;;10.51;100.00;96462.22;5034118;28;20041;-83
2023/08/07 09:52:29;;;;;;;0.20;0.20;;;;;;;10.54;100.00;96454.50;5034524;28;20092;-83
2023/08/07 09:55:18;;;;;;;0.10;0.10;;;;;;;10.56;100.00;96455.06;5035228;28;20073;-81
2023/08/07 09:58:08;;;;;;;0.10;0.10;;;;;;;10.58;100.00;96462.84;5031981;28;20040;-84
2023/08/07 10:00:55;;;;;;;0.10;0.10;;;;;;;10.71;100.00;96473.19;5032221;28;20052;-82
2023/08/07 10:03:41;;;;;;;0.10;0.10;;;;;;;10.79;100.00;96470.06;5036908;28;20045;-83
2023/08/07 10:06:26;;;;;;;0.10;0.10;;;;;;;10.80;100.00;96470.88;5039737;28;20087;-81
2023/08/07 10:09:12;;;;;;;0.10;0.10;;;;;;;10.75;100.00;96487.69;5035911;28;20044;-82
2023/08/07 10:11:59;;;;;;;0.10;0.10;;;;;;;10.72;100.00;96469.44;5037367;28;20041;-83
2023/08/07 10:14:45;;;;;;;0.10;0.10;;;;;;;10.65;100.00;96474.16;5038383;28;20163;-81
2023/08/07 10:17:32;;;;;;;0.10;0.10;;;;;;;10.63;100.00;96495.03;5036644;28;20036;-83
2023/08/07 10:20:18;;;;;;;0.10;0.10;;;;;;;10.69;100.00;96477.97;5043179;28;20048;-83
2023/08/07 10:23:08;;;;;;;0.20;0.20;;;;;;;10.79;100.00;96485.31;5035689;28;21084;-82
2023/08/07 10:25:55;;;;;;;0.10;0.10;;;;;;;10.74;100.00;96480.72;5038369;28;20121;-83
2023/08/07 10:28:42;;;;;;;0.10;0.10;;;;;;;10.74;100.00;96488.75;5038608;28;20051;-81
2023/08/07 10:31:32;;;;;;;0.10;0.10;;;;;;;10.67;100.00;96492.69;5037970;28;20037;-83
2023/08/07 10:34:18;;;;;;;0.20;0.20;;;;;;;10.62;100.00;96504.09;5035570;28;20109;-82
2023/08/07 10:37:07;;;;;;;0.10;0.10;;;;;;;10.70;100.00;96510.91;5037631;28;20052;-81
2023/08/07 10:40:01;;;;;;;0.10;0.10;;;;;;;10.71;100.00;96515.19;5015383;28;20060;-82
2023/08/07 10:42:58;;;;;;;0.10;0.10;;;;;;;10.81;100.00;96520.66;5037142;28;20565;-82
2023/08/07 10:45:44;;;;;;;0.20;0.20;;;;;;;10.74;100.00;96515.53;5026402;28;21088;-81
2023/08/07 10:48:32;;;;;;;0.10;0.10;;;;;;;10.68;100.00;96516.50;5034907;28;20085;-83
2023/08/07 10:51:18;;;;;;;0.10;0.10;;;;;;;10.68;100.00;96515.69;5038236;28;20506;-84
2023/08/07 10:54:04;;;;;;;0.10;0.10;;;;;;;10.77;100.00;96516.88;5035658;28;20058;-83
2023/08/07 10:56:54;;;;;;;0.10;0.10;;;;;;;10.79;100.00;96517.44;5033145;28;20068;-83
2023/08/07 11:00:07;;;;;;;0.10;0.10;;;;;;;10.95;100.00;96519.25;5033930;28;20541;-81
2023/08/07 11:02:54;;;;;;;0.10;0.10;;;;;;;11.09;100.00;96528.53;5033566;28;20077;-82
2023/08/07 11:05:40;;;;;;;0.10;0.10;;;;;;;11.19;100.00;96517.13;5037356;28;20068;-82
2023/08/07 11:08:25;;;;;;;0.20;0.20;;;;;;;11.46;100.00;96517.16;5036016;28;20052;-82
2023/08/07 11:11:11;;;;;;;0.10;0.10;;;;;;;11.66;100.00;96524.59;5035566;28;20593;-81
2023/08/07 11:13:57;;;;;;;0.20;0.20;;;;;;;11.54;100.00;96522.06;5035903;28;20044;-81
2023/08/07 11:16:44;;;;;;;0.10;0.10;;;;;;;11.35;100.00;96534.97;5036567;28;20094;-81
2023/08/07 11:19:30;;;;;;;0.17;0.17;;;;;;;11.28;100.00;96537.03;5037437;28;20045;-83
2023/08/07 11:22:16;;;;;;;0.20;0.20;;;;;;;11.33;100.00;96538.97;5038784;28;20039;-82
2023/08/07 11:25:02;;;;;;;0.10;0.10;;;;;;;11.53;100.00;96539.22;5041697;28;20749;-81
2023/08/07 11:27:48;;;;;;;0.10;0.10;;;;;;;11.38;100.00;96542.53;5040757;28;20039;-82
2023/08/07 11:30:35;;;;;;;0.20;0.20;;;;;;;11.51;100.00;96545.88;5035032;28;20041;-80
2023/08/07 11:33:25;;;;;;;0.20;0.20;;;;;;;11.58;100.00;96533.06;5036280;28;20072;-83
2023/08/07 11:36:12;;;;;;;0.20;0.20;;;;;;;12.23;100.00;96526.72;5038392;28;20044;-83
2023/08/07 11:38:58;;;;;;;0.17;0.17;;;;;;;13.13;100.00;96532.06;5033355;28;20041;-83
2023/08/07 11:41:47;;;;;;;0.10;0.10;;;;;;;14.33;100.00;96519.13;5036158;28;20049;-83
2023/08/07 11:44:33;;;;;;;0.10;0.10;;;;;;;14.94;100.00;96510.97;5036720;28;20044;-81
2023/08/07 11:47:19;;;;;;;0.10;0.10;;;;;;;14.28;100.00;96510.25;5025145;28;20053;-83
2023/08/07 11:50:06;;;;;;;0.13;0.13;;;;;;;14.00;100.00;96511.59;5031838;28;20041;-83
2023/08/07 11:53:00;;;;;;;0.20;0.20;;;;;;;13.86;100.00;96519.41;5035157;28;20506;-83
2023/08/07 11:55:48;;;;;;;0.10;0.10;;;;;;;15.96;100.00;96515.84;5033769;28;20044;-84
2023/08/07 11:58:39;;;;;;;0.20;0.20;;;;;;;16.74;100.00;96508.72;5035465;28;20070;-84
2023/08/07 12:01:26;;;;;;;0.20;0.20;;;;;;;16.83;100.00;96512.41;5034731;28;20434;-81
2023/08/07 12:04:13;;;;;;;0.10;0.10;;;;;;;16.92;100.00;96507.97;5032244;28;20041;-81
2023/08/07 12:06:58;;;;;;;0.10;0.10;;;;;;;17.06;100.00;96516.19;5035004;28;20049;-80
2023/08/07 12:09:44;;;;;;;0.10;0.10;;;;;;;17.98;100.00;96521.22;5035749;28;20037;-83
2023/08/07 12:12:34;;;;;;;0.22;0.22;;;;;;;23.13;100.00;96501.72;5018630;28;20490;-82
2023/08/07 12:15:20;;;;;;;0.20;0.20;;;;;;;23.46;95.30;96510.06;5035949;28;20040;-81
2023/08/07 12:18:07;;;;;;;0.20;0.20;;;;;;;25.60;76.54;96501.25;5016639;28;20533;-81
2023/08/07 12:21:04;;;;;;;0.10;0.10;;;;;;;23.65;91.26;96503.38;5033567;28;20566;-82
2023/08/07 12:23:51;;;;;;;0.10;0.10;;;;;;;20.31;100.00;96515.00;5036377;28;20103;-82
2023/08/07 12:26:37;;;;;;;0.10;0.10;;;;;;;18.26;100.00;96505.88;5030383;28;20124;-83
2023/08/07 12:29:28;;;;;;;0.10;0.10;;;;;;;19.61;100.00;96519.09;5032087;28;20103;-84
2023/08/07 12:32:14;;;;;;;0.10;0.10;;;;;;;19.66;100.00;96510.81;5032138;28;20049;-82
2023/08/07 12:35:01;;;;;;;0.10;0.10;;;;;;;17.35;100.00;96506.06;5033493;28;20123;-82
2023/08/07 12:37:47;;;;;;;0.10;0.10;;;;;;;16.26;100.00;96509.38;5034404;28;20929;-84
2023/08/07 12:40:36;;;;;;;0.10;0.10;;;;;;;15.78;100.00;96524.59;5036013;28;20041;-84
2023/08/07 12:43:22;;;;;;;0.10;0.10;;;;;;;15.58;100.00;96515.53;5036075;28;20045;-82
2023/08/07 12:46:07;;;;;;;0.10;0.10;;;;;;;16.49;100.00;96513.22;5020931;28;20502;-82
2023/08/07 12:48:53;;;;;;;0.10;0.10;;;;;;;18.69;100.00;96503.00;5014942;28;20245;-84
2023/08/07 12:51:39;;;;;;;0.20;0.20;;;;;;;20.82;100.00;96503.69;5034237;28;20037;-83
2023/08/07 12:54:25;;;;;;;0.20;0.20;;;;;;;26.47;77.27;96500.75;5031880;28;20555;-81
2023/08/07 12:57:11;;;;;;;0.20;0.20;;;;;;;23.83;88.07;96508.41;4143489;28;10000932;-83
2023/08/07 12:59:57;;;;;;;0.20;0.20;;;;;;;26.45;66.05;96486.56;4133592;28;10000832;-84
2023/08/07 13:02:45;;;;;;;0.20;0.20;;;;;;;25.82;60.76;96487.09;4997548;28;20052;-83